Maxbass, ND

2:19 AM CDT on August 01, 2014 (GMT -0500)
East End Behind Tesoro (KNDMOHAL2) Elev 1631 ft | 48.77 °N, 101.50 °W | Change Station
Active Advisory: Flood Warning

Current weather conditions updated 0 second ago

Clear
Clear
63.6 °F
Feels Like 63.6 °F
N
0.0
Wind Variable Wind from North
Gusts 0.0 mph

Today is forecast to be Warmer than yesterday.

Today
High -- | Low -- °F
--% Chance of Precip.
Yesterday
High -- | Low -- °F
Precip. -- in
6:18 AM 9:23 PM
Waxing Crescent, 24% visible
Pressure 30.05 in
Visibility 10.0 miles
Clouds Clear
Dew Point 60 °F
Humidity 88%
Rainfall 0.00 in
Snow Depth Not available.
UV 0.0 out of 12
Pollen 7.00 out of 12
Air Quality Not available.
Flu Activity Not available.
METAR KMIB 010658Z AUTO 22003KT 10SM CLR 14/14 A3005 RMK AO2 SLP176 T01440143 $

More Conditions Fewer Conditions

Pressure 30.05 in
Visibility 10.0 miles
Clouds Clear
Dew Point 60 °F
Humidity 88%
Rainfall 0.00 in
Snow Depth Not available.
UV 0.0 out of 12
Pollen 7.00 out of 12
Air Quality Not available.
Flu Activity Not available.
METAR KMIB 010658Z AUTO 22003KT 10SM CLR 14/14 A3005 RMK AO2 SLP176 T01440143 $

More Conditions Fewer Conditions

10-Day Weather Forecast

Almanac

Astronomy

Aug. 01, 2014 Rise Set
Actual Time 6:18 AM CDT 9:23 PM CDT
Civil Twilight 5:41 AM CDT 10:00 PM CDT
Nautical Twilight 4:53 AM CDT 10:48 PM CDT
Astronomical Twilight 3:52 AM CDT 11:48 PM CDT
Moon 12:16 PM CDT 11:35 PM CDT
Length of Visible Light 16h 18m
Length of Day
15h 04m
Tomorrow will be 2m 49s shorter.
Waxing Crescent, 24% of the Moon is Illuminated
Today
Waxing Crescent
Aug 3
First Quarter
Aug 10
Full
Aug 17
Last Quarter
Aug 25
New

Today's Extremes

State Highs State Lows

Community

WunderPhotos

Upload Photos

1,739,522 photos uploaded!

Nearby

Snow Depth

Station Depth Elevation
No new snow has been reported.

Earthquake Activity

City Distance Mag. Time & Date
No recent earthquake activity has been reported nearby.
Minimum magnitude displayed is 2.5.

Coastal Water Temperatures

Place Temperature
No Stations Reporting

Nearby Weather Stations

Station Location Temp. Dew Point Humidity Wind Precip. Elev Updated Type
East End Behind Tesoro, Mohall, ND 63.6 °F 60 °F 88% North  at  0.0 mph 0.00 in / hr 1631 ft 2:19 AM CDT Rapid Fire

Show More Stations Show Fewer Stations